sensor_id;sensor_type;location;lat;lon;timestamp;pressure;altitude;pressure_sealevel;temperature;humidity
33949;BME280;20229;49.856;19.030;2024-02-23T00:04:33;99593.34;;;11.08;71.00
33949;BME280;20229;49.856;19.030;2024-02-23T00:09:48;99592.47;;;11.07;71.05
33949;BME280;20229;49.856;19.030;2024-02-23T00:15:03;99583.41;;;11.07;70.95
33949;BME280;20229;49.856;19.030;2024-02-23T00:20:18;99591.84;;;11.04;71.21
33949;BME280;20229;49.856;19.030;2024-02-23T00:25:34;99593.80;;;11.01;71.25
33949;BME280;20229;49.856;19.030;2024-02-23T00:30:50;99584.87;;;10.99;71.82
33949;BME280;20229;49.856;19.030;2024-02-23T00:36:04;99582.37;;;10.96;71.96
33949;BME280;20229;49.856;19.030;2024-02-23T00:41:18;99580.87;;;10.92;72.21
33949;BME280;20229;49.856;19.030;2024-02-23T00:46:32;99584.70;;;10.90;72.32
33949;BME280;20229;49.856;19.030;2024-02-23T00:51:47;99591.14;;;10.89;72.17
33949;BME280;20229;49.856;19.030;2024-02-23T00:57:01;99600.07;;;10.91;72.10
33949;BME280;20229;49.856;19.030;2024-02-23T01:02:15;99592.98;;;10.88;72.32
33949;BME280;20229;49.856;19.030;2024-02-23T01:07:29;99597.70;;;10.86;72.91
33949;BME280;20229;49.856;19.030;2024-02-23T01:12:43;99582.77;;;10.79;73.70
33949;BME280;20229;49.856;19.030;2024-02-23T01:17:57;99585.95;;;10.73;73.59
33949;BME280;20229;49.856;19.030;2024-02-23T01:23:11;99586.08;;;10.71;73.26
33949;BME280;20229;49.856;19.030;2024-02-23T01:28:26;99577.90;;;10.71;72.62
33949;BME280;20229;49.856;19.030;2024-02-23T01:33:46;99574.30;;;10.71;72.39
33949;BME280;20229;49.856;19.030;2024-02-23T01:39:04;99574.17;;;10.72;72.30
33949;BME280;20229;49.856;19.030;2024-02-23T01:44:18;99580.50;;;10.73;72.15
33949;BME280;20229;49.856;19.030;2024-02-23T01:49:35;99579.40;;;10.75;72.23
33949;BME280;20229;49.856;19.030;2024-02-23T01:54:49;99576.67;;;10.75;71.93
33949;BME280;20229;49.856;19.030;2024-02-23T02:00:09;99563.77;;;10.77;71.41
33949;BME280;20229;49.856;19.030;2024-02-23T02:05:27;99565.39;;;10.80;71.26
33949;BME280;20229;49.856;19.030;2024-02-23T02:10:42;99562.67;;;10.80;71.04
33949;BME280;20229;49.856;19.030;2024-02-23T02:16:01;99557.21;;;10.80;70.94
33949;BME280;20229;49.856;19.030;2024-02-23T02:21:18;99554.48;;;10.80;70.96
33949;BME280;20229;49.856;19.030;2024-02-23T02:26:38;99559.95;;;10.80;71.03
33949;BME280;20229;49.856;19.030;2024-02-23T02:31:52;99568.13;;;10.80;70.88
33949;BME280;20229;49.856;19.030;2024-02-23T02:37:07;99568.99;;;10.81;70.93
33949;BME280;20229;49.856;19.030;2024-02-23T02:42:22;99552.62;;;10.81;71.28
33949;BME280;20229;49.856;19.030;2024-02-23T02:47:35;99553.75;;;10.78;71.00
33949;BME280;20229;49.856;19.030;2024-02-23T02:52:49;99553.75;;;10.78;71.39
33949;BME280;20229;49.856;19.030;2024-02-23T02:58:03;99552.20;;;10.74;71.74
33949;BME280;20229;49.856;19.030;2024-02-23T03:03:17;99543.92;;;10.75;71.14
33949;BME280;20229;49.856;19.030;2024-02-23T03:08:31;99541.28;;;10.74;71.40
33949;BME280;20229;49.856;19.030;2024-02-23T03:13:46;99566.62;;;10.76;71.57
33949;BME280;20229;49.856;19.030;2024-02-23T03:18:59;99561.03;;;10.77;71.65
33949;BME280;20229;49.856;19.030;2024-02-23T03:24:13;99573.59;;;10.80;71.92
33949;BME280;20229;49.856;19.030;2024-02-23T03:29:27;99589.23;;;10.78;72.31
33949;BME280;20229;49.856;19.030;2024-02-23T03:34:45;99596.52;;;10.77;72.68
33949;BME280;20229;49.856;19.030;2024-02-23T03:40:01;99612.26;;;10.74;72.68
33949;BME280;20229;49.856;19.030;2024-02-23T03:45:18;99620.22;;;10.77;72.81
33949;BME280;20229;49.856;19.030;2024-02-23T03:50:32;99626.90;;;10.73;73.35
33949;BME280;20229;49.856;19.030;2024-02-23T03:55:46;99641.55;;;10.72;73.66
33949;BME280;20229;49.856;19.030;2024-02-23T04:01:03;99644.62;;;10.67;73.81
33949;BME280;20229;49.856;19.030;2024-02-23T04:06:20;99633.80;;;10.66;73.67
33949;BME280;20229;49.856;19.030;2024-02-23T04:11:33;99641.11;;;10.65;73.91
33949;BME280;20229;49.856;19.030;2024-02-23T04:16:48;99643.71;;;10.67;73.71
33949;BME280;20229;49.856;19.030;2024-02-23T04:22:02;99653.77;;;10.66;73.62
33949;BME280;20229;49.856;19.030;2024-02-23T04:27:16;99654.64;;;10.67;73.44
33949;BME280;20229;49.856;19.030;2024-02-23T04:32:30;99652.91;;;10.66;73.61
33949;BME280;20229;49.856;19.030;2024-02-23T04:37:44;99646.45;;;10.67;73.43
33949;BME280;20229;49.856;19.030;2024-02-23T04:43:00;99649.95;;;10.69;73.69
33949;BME280;20229;49.856;19.030;2024-02-23T04:48:14;99659.00;;;10.69;73.63
33949;BME280;20229;49.856;19.030;2024-02-23T04:53:28;99657.15;;;10.70;73.91
33949;BME280;20229;49.856;19.030;2024-02-23T04:58:43;99669.92;;;10.69;74.67
33949;BME280;20229;49.856;19.030;2024-02-23T05:04:00;99679.20;;;10.67;74.41
33949;BME280;20229;49.856;19.030;2024-02-23T05:09:14;99691.02;;;10.67;74.31
33949;BME280;20229;49.856;19.030;2024-02-23T05:14:29;99694.62;;;10.68;74.53
33949;BME280;20229;49.856;19.030;2024-02-23T05:19:43;99706.27;;;10.70;74.25
33949;BME280;20229;49.856;19.030;2024-02-23T05:24:59;99709.23;;;10.67;74.71
33949;BME280;20229;49.856;19.030;2024-02-23T05:30:13;99709.23;;;10.67;74.84
33949;BME280;20229;49.856;19.030;2024-02-23T05:35:27;99705.84;;;10.63;74.82
33949;BME280;20229;49.856;19.030;2024-02-23T05:40:41;99715.89;;;10.63;75.47
33949;BME280;20229;49.856;19.030;2024-02-23T05:45:57;99728.02;;;10.59;75.79
33949;BME280;20229;49.856;19.030;2024-02-23T05:51:12;99726.28;;;10.58;76.01
33949;BME280;20229;49.856;19.030;2024-02-23T05:56:26;99737.41;;;10.55;76.80
33949;BME280;20229;49.856;19.030;2024-02-23T06:01:40;99742.09;;;10.52;77.30
33949;BME280;20229;49.856;19.030;2024-02-23T06:06:55;99753.14;;;10.51;77.43
33949;BME280;20229;49.856;19.030;2024-02-23T06:12:10;99752.27;;;10.50;77.58
33949;BME280;20229;49.856;19.030;2024-02-23T06:17:25;99748.76;;;10.48;78.50
33949;BME280;20229;49.856;19.030;2024-02-23T06:22:39;99765.13;;;10.48;78.60
33949;BME280;20229;49.856;19.030;2024-02-23T06:27:52;99772.66;;;10.45;79.25
33949;BME280;20229;49.856;19.030;2024-02-23T06:33:06;99773.66;;;10.44;79.75
33949;BME280;20229;49.856;19.030;2024-02-23T06:38:20;99780.19;;;10.41;79.80
33949;BME280;20229;49.856;19.030;2024-02-23T06:43:34;99782.92;;;10.41;80.11
33949;BME280;20229;49.856;19.030;2024-02-23T06:48:49;99807.69;;;10.38;81.43
33949;BME280;20229;49.856;19.030;2024-02-23T06:54:03;99826.03;;;10.36;81.89
33949;BME280;20229;49.856;19.030;2024-02-23T06:59:17;99833.65;;;10.31;82.62
33949;BME280;20229;49.856;19.030;2024-02-23T07:04:33;99856.57;;;10.28;84.44
33949;BME280;20229;49.856;19.030;2024-02-23T07:09:47;99869.52;;;10.25;83.48
33949;BME280;20229;49.856;19.030;2024-02-23T07:15:02;99870.48;;;10.24;83.78
33949;BME280;20229;49.856;19.030;2024-02-23T07:20:16;99878.11;;;10.19;84.87
33949;BME280;20229;49.856;19.030;2024-02-23T07:25:30;99889.23;;;10.16;85.31
33949;BME280;20229;49.856;19.030;2024-02-23T07:30:44;99893.70;;;10.17;86.01
33949;BME280;20229;49.856;19.030;2024-02-23T07:36:00;99918.23;;;10.17;86.64
33949;BME280;20229;49.856;19.030;2024-02-23T07:41:15;99922.16;;;10.13;86.70
33949;BME280;20229;49.856;19.030;2024-02-23T07:46:31;99924.01;;;10.12;87.12
33949;BME280;20229;49.856;19.030;2024-02-23T07:51:47;99924.13;;;10.11;86.79
33949;BME280;20229;49.856;19.030;2024-02-23T07:57:01;99924.88;;;10.13;88.18
33949;BME280;20229;49.856;19.030;2024-02-23T08:02:15;99933.06;;;10.13;88.21
33949;BME280;20229;49.856;19.030;2024-02-23T08:07:29;99926.54;;;10.15;86.50
33949;BME280;20229;49.856;19.030;2024-02-23T08:12:47;99936.58;;;10.15;85.70
33949;BME280;20229;49.856;19.030;2024-02-23T08:18:01;99935.27;;;10.20;85.58
33949;BME280;20229;49.856;19.030;2024-02-23T08:23:15;99937.79;;;10.23;84.67
33949;BME280;20229;49.856;19.030;2024-02-23T08:28:29;99939.53;;;10.24;83.72
33949;BME280;20229;49.856;19.030;2024-02-23T08:33:43;99946.85;;;10.24;83.37
33949;BME280;20229;49.856;19.030;2024-02-23T08:38:58;99937.71;;;10.25;83.36
33949;BME280;20229;49.856;19.030;2024-02-23T08:44:12;99949.57;;;10.24;83.30
33949;BME280;20229;49.856;19.030;2024-02-23T08:49:26;99957.51;;;10.28;84.32
33949;BME280;20229;49.856;19.030;2024-02-23T08:54:41;99951.27;;;10.26;83.41
33949;BME280;20229;49.856;19.030;2024-02-23T08:59:55;99963.91;;;10.27;83.86
33949;BME280;20229;49.856;19.030;2024-02-23T09:05:11;99962.05;;;10.28;83.53
33949;BME280;20229;49.856;19.030;2024-02-23T09:10:25;99966.55;;;10.29;84.57
33949;BME280;20229;49.856;19.030;2024-02-23T09:15:39;99983.59;;;10.33;84.51
33949;BME280;20229;49.856;19.030;2024-02-23T09:20:57;99994.98;;;10.39;84.42
33949;BME280;20229;49.856;19.030;2024-02-23T09:26:11;100001.98;;;10.43;84.98
33949;BME280;20229;49.856;19.030;2024-02-23T09:31:26;100016.95;;;10.50;84.52
33949;BME280;20229;49.856;19.030;2024-02-23T09:36:42;100028.62;;;10.52;85.36
33949;BME280;20229;49.856;19.030;2024-02-23T09:41:56;100027.66;;;10.53;85.66
33949;BME280;20229;49.856;19.030;2024-02-23T09:47:10;100030.95;;;10.59;85.27
33949;BME280;20229;49.856;19.030;2024-02-23T09:52:25;100032.20;;;10.67;84.78
33949;BME280;20229;49.856;19.030;2024-02-23T09:57:44;100041.20;;;10.82;84.75
33949;BME280;20229;49.856;19.030;2024-02-23T10:02:59;100050.85;;;11.00;84.45
33949;BME280;20229;49.856;19.030;2024-02-23T10:08:13;100044.11;;;11.06;84.17
33949;BME280;20229;49.856;19.030;2024-02-23T10:13:32;100030.87;;;11.13;83.27
33949;BME280;20229;49.856;19.030;2024-02-23T10:18:57;100029.25;;;11.23;83.28
33949;BME280;20229;49.856;19.030;2024-02-23T10:24:15;100027.86;;;11.43;83.07
33949;BME280;20229;49.856;19.030;2024-02-23T10:29:30;100033.86;;;11.61;82.94
33949;BME280;20229;49.856;19.030;2024-02-23T10:34:48;100026.41;;;11.76;81.86
33949;BME280;20229;49.856;19.030;2024-02-23T10:40:06;100038.02;;;11.79;81.29
33949;BME280;20229;49.856;19.030;2024-02-23T10:45:23;100037.05;;;11.80;80.96
33949;BME280;20229;49.856;19.030;2024-02-23T10:50:38;100041.73;;;11.78;80.21
33949;BME280;20229;49.856;19.030;2024-02-23T10:55:56;100060.48;;;11.84;80.00
33949;BME280;20229;49.856;19.030;2024-02-23T11:01:16;100046.80;;;11.84;79.63
33949;BME280;20229;49.856;19.030;2024-02-23T11:06:33;100061.88;;;11.77;79.42
33949;BME280;20229;49.856;19.030;2024-02-23T11:11:55;100054.63;;;11.76;79.69
33949;BME280;20229;49.856;19.030;2024-02-23T11:22:34;100048.85;;;11.81;79.74
33949;BME280;20229;49.856;19.030;2024-02-23T11:27:51;100055.02;;;11.84;79.36
33949;BME280;20229;49.856;19.030;2024-02-23T11:33:08;100051.80;;;11.90;79.79
33949;BME280;20229;49.856;19.030;2024-02-23T11:38:21;100061.88;;;12.03;79.58
33949;BME280;20229;49.856;19.030;2024-02-23T11:43:35;100068.09;;;12.05;79.27
33949;BME280;20229;49.856;19.030;2024-02-23T11:48:50;100081.33;;;12.11;79.28
33949;BME280;20229;49.856;19.030;2024-02-23T11:54:07;100085.50;;;12.04;79.88
33949;BME280;20229;49.856;19.030;2024-02-23T11:59:22;100097.35;;;11.91;80.44
33949;BME280;20229;49.856;19.030;2024-02-23T12:04:44;100108.14;;;11.80;80.52
33949;BME280;20229;49.856;19.030;2024-02-23T12:09:58;100111.97;;;11.78;80.87
33949;BME280;20229;49.856;19.030;2024-02-23T12:15:11;100092.26;;;11.72;81.01
33949;BME280;20229;49.856;19.030;2024-02-23T12:20:28;100074.98;;;11.72;81.59
33949;BME280;20229;49.856;19.030;2024-02-23T12:31:36;100097.07;;;11.69;81.02
33949;BME280;20229;49.856;19.030;2024-02-23T12:36:50;100086.14;;;11.69;81.26
33949;BME280;20229;49.856;19.030;2024-02-23T12:42:04;100091.94;;;11.64;81.41
33949;BME280;20229;49.856;19.030;2024-02-23T12:47:18;100105.40;;;11.67;81.15
33949;BME280;20229;49.856;19.030;2024-02-23T12:52:32;100111.29;;;11.61;81.08
33949;BME280;20229;49.856;19.030;2024-02-23T12:57:46;100098.61;;;11.60;80.99
33949;BME280;20229;49.856;19.030;2024-02-23T13:03:00;100102.42;;;11.58;80.53
33949;BME280;20229;49.856;19.030;2024-02-23T13:08:17;100102.34;;;11.59;80.29
33949;BME280;20229;49.856;19.030;2024-02-23T13:13:31;100107.80;;;11.59;80.23
33949;BME280;20229;49.856;19.030;2024-02-23T13:18:46;100097.53;;;11.63;79.83
33949;BME280;20229;49.856;19.030;2024-02-23T13:24:04;100100.02;;;11.66;80.09
33949;BME280;20229;49.856;19.030;2024-02-23T13:29:19;100110.87;;;11.67;80.10
33949;BME280;20229;49.856;19.030;2024-02-23T13:34:34;100115.68;;;11.64;80.74
33949;BME280;20229;49.856;19.030;2024-02-23T13:39:48;100133.07;;;11.63;80.92
33949;BME280;20229;49.856;19.030;2024-02-23T13:45:03;100140.61;;;11.59;81.38
33949;BME280;20229;49.856;19.030;2024-02-23T13:50:17;100145.17;;;11.59;81.84
33949;BME280;20229;49.856;19.030;2024-02-23T13:55:31;100134.68;;;11.53;82.17
33949;BME280;20229;49.856;19.030;2024-02-23T14:00:44;100133.36;;;11.45;82.77
33949;BME280;20229;49.856;19.030;2024-02-23T14:05:58;100125.04;;;11.34;84.64
33949;BME280;20229;49.856;19.030;2024-02-23T14:11:14;100134.60;;;11.27;84.67
33949;BME280;20229;49.856;19.030;2024-02-23T14:16:28;100138.74;;;11.20;85.88
33949;BME280;20229;49.856;19.030;2024-02-23T14:21:43;100140.92;;;11.15;86.98
33949;BME280;20229;49.856;19.030;2024-02-23T14:26:57;100128.67;;;11.08;88.57
33949;BME280;20229;49.856;19.030;2024-02-23T14:32:18;100126.65;;;10.97;89.72
33949;BME280;20229;49.856;19.030;2024-02-23T14:37:32;100128.92;;;10.90;90.78
33949;BME280;20229;49.856;19.030;2024-02-23T14:42:46;100130.11;;;10.86;91.48
33949;BME280;20229;49.856;19.030;2024-02-23T14:48:04;100136.09;;;10.79;91.63
33949;BME280;20229;49.856;19.030;2024-02-23T14:53:18;100131.14;;;10.71;92.43
33949;BME280;20229;49.856;19.030;2024-02-23T14:58:32;100128.22;;;10.60;92.92
33949;BME280;20229;49.856;19.030;2024-02-23T15:03:46;100126.59;;;10.57;92.91
33949;BME280;20229;49.856;19.030;2024-02-23T15:09:01;100129.71;;;10.51;94.12
33949;BME280;20229;49.856;19.030;2024-02-23T15:14:18;100112.66;;;10.47;94.63
33949;BME280;20229;49.856;19.030;2024-02-23T15:19:31;100111.51;;;10.37;95.30
33949;BME280;20229;49.856;19.030;2024-02-23T15:24:46;100133.52;;;10.34;95.13
33949;BME280;20229;49.856;19.030;2024-02-23T15:30:05;100134.70;;;10.30;95.67
33949;BME280;20229;49.856;19.030;2024-02-23T15:35:23;100133.91;;;10.28;96.44
33949;BME280;20229;49.856;19.030;2024-02-23T15:40:41;100139.16;;;10.17;96.61
33949;BME280;20229;49.856;19.030;2024-02-23T15:45:55;100133.81;;;10.15;96.77
33949;BME280;20229;49.856;19.030;2024-02-23T15:51:08;100140.72;;;10.06;96.85
33949;BME280;20229;49.856;19.030;2024-02-23T15:56:23;100143.66;;;10.03;96.75
33949;BME280;20229;49.856;19.030;2024-02-23T16:01:37;100152.02;;;10.00;97.48
33949;BME280;20229;49.856;19.030;2024-02-23T16:06:51;100152.30;;;9.96;97.47
33949;BME280;20229;49.856;19.030;2024-02-23T16:12:05;100158.16;;;9.90;97.84
33949;BME280;20229;49.856;19.030;2024-02-23T16:17:21;100154.53;;;9.89;97.87
33949;BME280;20229;49.856;19.030;2024-02-23T16:22:35;100165.15;;;9.79;98.04
33949;BME280;20229;49.856;19.030;2024-02-23T16:27:49;100148.98;;;9.76;98.79
33949;BME280;20229;49.856;19.030;2024-02-23T16:33:04;100156.47;;;9.73;98.90
33949;BME280;20229;49.856;19.030;2024-02-23T16:38:17;100150.22;;;9.71;99.04
33949;BME280;20229;49.856;19.030;2024-02-23T16:43:31;100142.34;;;9.66;99.44
33949;BME280;20229;49.856;19.030;2024-02-23T16:48:47;100133.30;;;9.66;99.15
33949;BME280;20229;49.856;19.030;2024-02-23T16:54:01;100123.93;;;9.55;99.35
33949;BME280;20229;49.856;19.030;2024-02-23T16:59:14;100140.09;;;9.58;99.55
33949;BME280;20229;49.856;19.030;2024-02-23T17:04:28;100149.62;;;9.51;100.00
33949;BME280;20229;49.856;19.030;2024-02-23T17:09:43;100144.53;;;9.45;99.37
33949;BME280;20229;49.856;19.030;2024-02-23T17:15:01;100144.63;;;9.44;99.99
33949;BME280;20229;49.856;19.030;2024-02-23T17:20:17;100152.89;;;9.42;100.00
33949;BME280;20229;49.856;19.030;2024-02-23T17:25:31;100163.02;;;9.40;100.00
33949;BME280;20229;49.856;19.030;2024-02-23T17:30:48;100157.75;;;9.37;100.00
33949;BME280;20229;49.856;19.030;2024-02-23T17:36:03;100156.37;;;9.30;100.00
33949;BME280;20229;49.856;19.030;2024-02-23T17:41:18;100157.41;;;9.27;100.00
33949;BME280;20229;49.856;19.030;2024-02-23T17:46:32;100156.72;;;9.24;100.00
33949;BME280;20229;49.856;19.030;2024-02-23T17:51:45;100145.13;;;9.20;100.00
33949;BME280;20229;49.856;19.030;2024-02-23T17:56:59;100151.82;;;9.15;100.00
33949;BME280;20229;49.856;19.030;2024-02-23T18:02:14;100140.23;;;9.11;100.00
33949;BME280;20229;49.856;19.030;2024-02-23T18:07:28;100131.54;;;9.04;100.00
33949;BME280;20229;49.856;19.030;2024-02-23T18:12:43;100145.54;;;8.98;100.00
33949;BME280;20229;49.856;19.030;2024-02-23T18:17:57;100143.77;;;8.97;100.00
33949;BME280;20229;49.856;19.030;2024-02-23T18:23:12;100133.09;;;8.94;100.00
33949;BME280;20229;49.856;19.030;2024-02-23T18:28:26;100136.05;;;8.90;100.00
33949;BME280;20229;49.856;19.030;2024-02-23T18:33:45;100145.09;;;8.90;100.00
33949;BME280;20229;49.856;19.030;2024-02-23T18:38:59;100140.02;;;8.84;100.00
33949;BME280;20229;49.856;19.030;2024-02-23T18:44:13;100128.05;;;8.86;100.00
33949;BME280;20229;49.856;19.030;2024-02-23T18:49:27;100136.16;;;8.88;100.00
33949;BME280;20229;49.856;19.030;2024-02-23T18:54:47;100124.98;;;8.93;98.59
33949;BME280;20229;49.856;19.030;2024-02-23T19:00:04;100136.51;;;8.98;98.80
33949;BME280;20229;49.856;19.030;2024-02-23T19:05:19;100127.95;;;9.04;96.98
33949;BME280;20229;49.856;19.030;2024-02-23T19:10:36;100110.39;;;9.09;94.54
33949;BME280;20229;49.856;19.030;2024-02-23T19:15:50;100116.86;;;9.23;93.35
33949;BME280;20229;49.856;19.030;2024-02-23T19:21:04;100107.41;;;9.28;92.94
33949;BME280;20229;49.856;19.030;2024-02-23T19:26:19;100093.43;;;9.34;91.96
33949;BME280;20229;49.856;19.030;2024-02-23T19:31:33;100072.33;;;9.38;91.29
33949;BME280;20229;49.856;19.030;2024-02-23T19:36:47;100093.75;;;9.44;90.05
33949;BME280;20229;49.856;19.030;2024-02-23T19:42:02;100088.99;;;9.48;90.37
33949;BME280;20229;49.856;19.030;2024-02-23T19:47:16;100086.77;;;9.54;89.99
33949;BME280;20229;49.856;19.030;2024-02-23T19:52:30;100083.81;;;9.57;89.12
33949;BME280;20229;49.856;19.030;2024-02-23T19:57:44;100078.98;;;9.63;88.37
33949;BME280;20229;49.856;19.030;2024-02-23T20:02:59;100069.74;;;9.65;88.41
33949;BME280;20229;49.856;19.030;2024-02-23T20:08:13;100063.99;;;9.70;87.47
33949;BME280;20229;49.856;19.030;2024-02-23T20:13:30;100065.66;;;9.72;87.56
33949;BME280;20229;49.856;19.030;2024-02-23T20:18:44;100065.36;;;9.77;86.99
33949;BME280;20229;49.856;19.030;2024-02-23T20:23:57;100040.63;;;9.80;86.75
33949;BME280;20229;49.856;19.030;2024-02-23T20:29:12;100022.12;;;9.85;86.34
33949;BME280;20229;49.856;19.030;2024-02-23T20:34:27;100029.34;;;9.86;85.02
33949;BME280;20229;49.856;19.030;2024-02-23T20:39:41;100023.28;;;9.95;84.60
33949;BME280;20229;49.856;19.030;2024-02-23T20:44:55;100039.45;;;9.98;84.45
33949;BME280;20229;49.856;19.030;2024-02-23T20:50:09;100043.53;;;10.05;84.05
33949;BME280;20229;49.856;19.030;2024-02-23T20:55:24;100044.12;;;10.11;83.66
33949;BME280;20229;49.856;19.030;2024-02-23T21:00:38;100037.29;;;10.18;83.49
33949;BME280;20229;49.856;19.030;2024-02-23T21:05:52;100055.27;;;10.20;82.54
33949;BME280;20229;49.856;19.030;2024-02-23T21:11:06;100053.06;;;10.27;82.29
33949;BME280;20229;49.856;19.030;2024-02-23T21:16:20;100048.59;;;10.26;82.85
33949;BME280;20229;49.856;19.030;2024-02-23T21:21:34;100055.00;;;10.25;83.13
33949;BME280;20229;49.856;19.030;2024-02-23T21:26:49;100061.36;;;10.25;83.00
33949;BME280;20229;49.856;19.030;2024-02-23T21:32:09;100062.98;;;10.28;82.82
33949;BME280;20229;49.856;19.030;2024-02-23T21:37:22;100040.01;;;10.32;82.61
33949;BME280;20229;49.856;19.030;2024-02-23T21:42:37;100023.33;;;10.37;82.31
33949;BME280;20229;49.856;19.030;2024-02-23T21:48:00;100009.57;;;10.38;82.12
33949;BME280;20229;49.856;19.030;2024-02-23T21:53:44;100003.45;;;10.35;82.36
33949;BME280;20229;49.856;19.030;2024-02-23T21:58:58;100006.65;;;10.41;82.30
33949;BME280;20229;49.856;19.030;2024-02-23T22:04:12;99988.33;;;10.43;81.85
33949;BME280;20229;49.856;19.030;2024-02-23T22:09:26;99979.51;;;10.52;81.51
33949;BME280;20229;49.856;19.030;2024-02-23T22:14:40;99995.68;;;10.56;81.04
33949;BME280;20229;49.856;19.030;2024-02-23T22:19:55;99989.80;;;10.62;81.40
33949;BME280;20229;49.856;19.030;2024-02-23T22:25:09;100002.67;;;10.60;81.37
33949;BME280;20229;49.856;19.030;2024-02-23T22:30:23;99993.52;;;10.61;81.19
33949;BME280;20229;49.856;19.030;2024-02-23T22:35:40;99985.13;;;10.64;80.86
33949;BME280;20229;49.856;19.030;2024-02-23T22:40:54;99976.95;;;10.64;81.25
33949;BME280;20229;49.856;19.030;2024-02-23T22:46:11;99966.23;;;10.61;81.47
33949;BME280;20229;49.856;19.030;2024-02-23T22:51:25;99958.80;;;10.63;80.97
33949;BME280;20229;49.856;19.030;2024-02-23T22:56:39;99957.27;;;10.59;81.57
33949;BME280;20229;49.856;19.030;2024-02-23T23:01:53;99975.49;;;10.58;81.77
33949;BME280;20229;49.856;19.030;2024-02-23T23:07:07;99973.75;;;10.57;82.01
33949;BME280;20229;49.856;19.030;2024-02-23T23:12:21;99952.80;;;10.58;82.00
33949;BME280;20229;49.856;19.030;2024-02-23T23:17:35;99953.98;;;10.53;81.61
33949;BME280;20229;49.856;19.030;2024-02-23T23:22:49;99949.27;;;10.56;81.14
33949;BME280;20229;49.856;19.030;2024-02-23T23:28:03;99954.86;;;10.54;81.41
33949;BME280;20229;49.856;19.030;2024-02-23T23:33:17;99943.73;;;10.57;81.05
33949;BME280;20229;49.856;19.030;2024-02-23T23:38:33;99951.80;;;10.59;80.47
33949;BME280;20229;49.856;19.030;2024-02-23T23:43:47;99942.74;;;10.58;80.80
33949;BME280;20229;49.856;19.030;2024-02-23T23:49:01;99950.27;;;10.55;80.81
33949;BME280;20229;49.856;19.030;2024-02-23T23:54:15;99940.87;;;10.46;80.33
33949;BME280;20229;49.856;19.030;2024-02-23T23:59:29;99939.76;;;10.48;80.25
